Time;durP1;ratioP1;P1;durP2;ratioP2;P2;SDS_P1;SDS_P2;PMS_P1;PMS_P2;Temp;Humidity;BMP_temperature;BMP_pressure;BME280_temperature;BME280_humidity;BME280_pressure;Samples;Min_cycle;Max_cycle;Signal;HPM_P1;HPM_P2
2023/09/18 00:01:55;;;;;;;8.17;7.57;;;;;;;15.03;100.00;96664.25;4943119;28;20225;-61
2023/09/18 00:04:24;;;;;;;7.70;7.20;;;;;;;15.01;100.00;96661.00;4935840;28;20218;-57
2023/09/18 00:06:51;;;;;;;8.67;7.97;;;;;;;14.99;100.00;96652.41;4943303;28;20266;-60
2023/09/18 00:09:19;;;;;;;8.30;7.80;;;;;;;15.00;100.00;96646.03;4812808;28;20214;-61
2023/09/18 00:11:47;;;;;;;8.53;7.93;;;;;;;15.01;100.00;96641.50;4942414;28;20234;-60
2023/09/18 00:14:15;;;;;;;8.17;7.67;;;;;;;14.99;100.00;96639.06;4936657;28;20325;-61
2023/09/18 00:16:43;;;;;;;8.40;7.60;;;;;;;14.92;100.00;96634.84;4940953;28;20240;-61
2023/09/18 00:19:26;;;;;;;8.93;8.30;;;;;;;14.92;100.00;96632.19;4935952;28;20358;-60
2023/09/18 00:21:54;;;;;;;8.33;7.73;;;;;;;14.98;100.00;96633.94;4939512;28;20265;-60
2023/09/18 00:24:22;;;;;;;8.97;8.37;;;;;;;15.01;100.00;96633.50;4936238;28;20289;-57
2023/09/18 00:26:49;;;;;;;8.33;7.83;;;;;;;14.99;100.00;96632.91;4941494;28;20321;-62
2023/09/18 00:29:17;;;;;;;8.93;8.23;;;;;;;14.99;100.00;96624.91;4892386;28;20403;-59
2023/09/18 00:31:45;;;;;;;8.00;7.40;;;;;;;14.93;100.00;96612.47;4941100;28;20226;-58
2023/09/18 00:34:12;;;;;;;8.87;8.27;;;;;;;14.87;100.00;96608.84;4937912;28;20317;-59
2023/09/18 00:36:41;;;;;;;8.70;8.00;;;;;;;14.81;100.00;96607.91;4939508;28;20218;-59
2023/09/18 00:39:09;;;;;;;8.67;7.90;;;;;;;14.84;100.00;96610.13;4817729;28;20207;-59
2023/09/18 00:41:37;;;;;;;9.00;8.30;;;;;;;14.76;100.00;96610.41;4941867;28;20687;-58
2023/09/18 00:44:05;;;;;;;8.50;7.90;;;;;;;14.78;100.00;96605.69;4938886;28;20207;-61
2023/09/18 00:46:33;;;;;;;8.50;7.90;;;;;;;14.75;100.00;96601.63;4900756;28;21084;-58
2023/09/18 00:49:01;;;;;;;8.37;7.80;;;;;;;14.74;100.00;96602.66;4918797;28;20219;-59
2023/09/18 00:51:29;;;;;;;8.50;7.90;;;;;;;14.73;100.00;96592.19;4937286;28;20516;-59
2023/09/18 00:53:58;;;;;;;8.90;8.20;;;;;;;14.77;100.00;96590.72;4941033;28;20968;-60
2023/09/18 00:56:26;;;;;;;8.20;7.50;;;;;;;14.77;100.00;96585.38;4947719;28;20322;-60
2023/09/18 00:58:54;;;;;;;8.03;7.47;;;;;;;14.72;100.00;96580.75;4941495;28;20210;-59
2023/09/18 01:01:23;;;;;;;8.13;7.53;;;;;;;14.74;100.00;96580.50;4923973;28;20203;-57
2023/09/18 01:03:53;;;;;;;7.63;7.13;;;;;;;14.69;100.00;96573.16;4908021;28;20222;-58
2023/09/18 01:06:21;;;;;;;8.27;7.67;;;;;;;14.62;100.00;96575.91;4938574;28;20230;-58
2023/09/18 01:08:53;;;;;;;7.60;7.10;;;;;;;14.57;100.00;96566.94;4937284;28;20235;-60
2023/09/18 01:11:30;;;;;;;8.50;7.83;;;;;;;14.59;100.00;96567.56;4892303;28;20204;-59
2023/09/18 01:14:05;;;;;;;7.70;7.20;;;;;;;14.56;100.00;96563.47;4889948;28;20726;-58
2023/09/18 01:16:36;;;;;;;7.90;7.40;;;;;;;14.55;100.00;96566.34;4938081;28;20280;-59
2023/09/18 01:19:04;;;;;;;7.93;7.40;;;;;;;14.55;100.00;96558.34;4941493;28;20687;-59
2023/09/18 01:21:32;;;;;;;8.50;7.80;;;;;;;14.56;100.00;96559.97;4935837;28;20203;-60
2023/09/18 01:24:01;;;;;;;8.30;7.70;;;;;;;14.53;100.00;96558.59;4936977;28;20270;-60
2023/09/18 01:26:28;;;;;;;8.23;7.47;;;;;;;14.53;100.00;96547.94;4935583;28;20476;-60
2023/09/18 01:28:56;;;;;;;7.73;7.13;;;;;;;14.50;100.00;96560.88;4939221;28;20943;-60
2023/09/18 01:31:26;;;;;;;7.83;7.27;;;;;;;14.48;100.00;96550.47;4921743;28;20222;-61
2023/09/18 01:33:54;;;;;;;8.57;7.73;;;;;;;14.46;100.00;96556.00;4911050;28;20231;-59
2023/09/18 01:36:22;;;;;;;7.77;7.17;;;;;;;14.45;100.00;96558.91;4938659;28;20318;-58
2023/09/18 01:38:51;;;;;;;7.90;7.23;;;;;;;14.44;100.00;96558.09;4934186;28;20294;-59
2023/09/18 01:41:21;;;;;;;7.57;7.07;;;;;;;14.37;100.00;96552.03;4897607;28;20588;-58
2023/09/18 01:43:48;;;;;;;7.83;7.27;;;;;;;14.40;100.00;96545.44;4859442;28;20595;-59
2023/09/18 01:46:17;;;;;;;8.03;7.50;;;;;;;14.41;100.00;96549.75;4939463;28;20333;-60
2023/09/18 01:48:47;;;;;;;7.73;7.20;;;;;;;14.36;100.00;96547.72;4933580;28;20207;-58
2023/09/18 01:51:15;;;;;;;7.40;6.90;;;;;;;14.32;100.00;96538.56;4939968;28;20759;-58
2023/09/18 01:53:43;;;;;;;10.00;7.87;;;;;;;14.29;100.00;96533.69;4933791;28;20909;-61
2023/09/18 01:56:11;;;;;;;8.47;7.87;;;;;;;14.26;100.00;96531.47;4939713;28;20327;-59
2023/09/18 01:58:40;;;;;;;7.87;7.20;;;;;;;14.27;100.00;96531.22;4936908;28;20245;-58
2023/09/18 02:01:08;;;;;;;7.60;7.07;;;;;;;14.22;100.00;96528.44;4938812;28;20266;-61
2023/09/18 02:03:41;;;;;;;7.77;7.17;;;;;;;14.23;100.00;96530.06;4888442;28;20207;-61
2023/09/18 02:06:29;;;;;;;8.27;7.63;;;;;;;14.25;100.00;96527.97;4935922;28;20230;-59
2023/09/18 02:08:57;;;;;;;7.63;7.20;;;;;;;14.21;100.00;96526.00;4946809;28;20274;-59
2023/09/18 02:11:25;;;;;;;8.50;7.80;;;;;;;14.30;100.00;96522.78;4957402;28;20294;-59
2023/09/18 02:13:54;;;;;;;7.93;7.23;;;;;;;14.29;100.00;96526.50;4952226;28;20222;-60
2023/09/18 02:16:23;;;;;;;7.63;6.90;;;;;;;14.29;100.00;96529.16;4886117;28;20284;-58
2023/09/18 02:18:55;;;;;;;7.03;6.53;;;;;;;14.27;100.00;96522.44;4869902;28;20550;-58
2023/09/18 02:21:23;;;;;;;8.10;7.50;;;;;;;14.30;100.00;96522.00;4939433;28;20711;-60
2023/09/18 02:23:51;;;;;;;8.43;7.77;;;;;;;14.31;100.00;96524.41;4932997;28;20699;-60
2023/09/18 02:26:19;;;;;;;8.20;7.60;;;;;;;14.31;100.00;96518.28;4938316;28;20223;-59
2023/09/18 02:28:47;;;;;;;7.90;7.27;;;;;;;14.25;100.00;96521.84;4935724;28;20207;-59
2023/09/18 02:31:16;;;;;;;9.07;8.33;;;;;;;14.28;100.00;96521.41;4932846;28;20218;-58
2023/09/18 02:33:44;;;;;;;8.43;7.70;;;;;;;14.27;100.00;96514.44;4894780;28;20210;-61
2023/09/18 02:36:12;;;;;;;8.20;7.60;;;;;;;14.23;100.00;96516.72;4936716;28;20234;-59
2023/09/18 02:38:39;;;;;;;7.73;7.23;;;;;;;14.23;100.00;96515.94;4933717;28;20269;-58
2023/09/18 02:41:07;;;;;;;8.20;7.60;;;;;;;14.19;100.00;96515.56;4939931;28;20245;-58
2023/09/18 02:43:35;;;;;;;7.77;7.17;;;;;;;14.16;100.00;96513.34;4934974;28;20217;-58
2023/09/18 02:46:02;;;;;;;7.90;7.30;;;;;;;14.17;100.00;96514.97;4938809;28;20238;-57
2023/09/18 02:48:31;;;;;;;8.03;7.43;;;;;;;14.19;100.00;96512.88;4936066;28;20305;-61
2023/09/18 02:50:59;;;;;;;8.47;7.77;;;;;;;14.18;100.00;96521.91;4936411;28;20294;-57
2023/09/18 02:53:30;;;;;;;7.77;7.17;;;;;;;14.15;100.00;96520.50;4803098;28;20223;-60
2023/09/18 02:55:59;;;;;;;8.93;8.13;;;;;;;14.08;100.00;96514.44;4936999;28;20875;-58
2023/09/18 02:58:29;;;;;;;7.73;7.23;;;;;;;14.06;100.00;96511.19;4935127;28;20211;-57
2023/09/18 03:00:58;;;;;;;8.83;8.23;;;;;;;14.03;100.00;96522.28;4941355;28;20237;-57
2023/09/18 03:03:25;;;;;;;8.33;7.73;;;;;;;14.01;100.00;96519.03;4932968;28;20213;-57
2023/09/18 03:06:01;;;;;;;7.93;7.30;;;;;;;14.01;100.00;96511.84;4935486;28;20250;-57
2023/09/18 03:08:29;;;;;;;7.77;7.27;;;;;;;14.01;100.00;96516.38;4889031;28;20321;-58
2023/09/18 03:10:57;;;;;;;8.33;7.57;;;;;;;13.96;100.00;96510.91;4934724;28;20215;-59
2023/09/18 03:13:27;;;;;;;8.50;7.83;;;;;;;13.95;100.00;96510.06;4868878;28;20262;-60
2023/09/18 03:15:56;;;;;;;9.07;8.37;;;;;;;13.94;100.00;96507.66;4936936;28;20234;-58
2023/09/18 03:18:23;;;;;;;8.03;7.50;;;;;;;13.90;100.00;96504.59;4935158;28;20610;-60
2023/09/18 03:20:51;;;;;;;8.80;8.10;;;;;;;13.88;100.00;96488.88;4937012;28;20207;-59
2023/09/18 03:23:20;;;;;;;8.77;8.13;;;;;;;13.87;100.00;96486.41;4836160;28;20463;-61
2023/09/18 03:25:48;;;;;;;8.63;7.93;;;;;;;13.86;100.00;96482.13;4933566;28;20242;-62
2023/09/18 03:28:19;;;;;;;8.50;7.90;;;;;;;13.87;100.00;96489.91;4936107;28;20273;-61
2023/09/18 03:30:46;;;;;;;8.70;8.00;;;;;;;13.89;100.00;96495.81;4937077;28;20214;-59
2023/09/18 03:33:14;;;;;;;10.20;8.70;;;;;;;13.91;100.00;96494.78;4936617;28;20234;-58
2023/09/18 03:35:49;;;;;;;7.97;7.47;;;;;;;13.92;100.00;96493.75;4938423;28;20237;-61
2023/09/18 03:38:17;;;;;;;9.37;8.77;;;;;;;13.94;100.00;96484.47;4887906;28;20249;-61
2023/09/18 03:40:47;;;;;;;8.20;7.60;;;;;;;13.88;100.00;96480.06;4934232;28;20207;-61
2023/09/18 03:43:15;;;;;;;8.30;7.53;;;;;;;13.82;100.00;96479.06;4917977;28;20207;-60
2023/09/18 03:45:43;;;;;;;8.13;7.57;;;;;;;13.73;100.00;96462.59;4890932;28;20219;-59
2023/09/18 03:48:11;;;;;;;8.37;7.77;;;;;;;13.81;100.00;96466.81;4937841;28;20215;-61
2023/09/18 03:50:39;;;;;;;8.57;7.90;;;;;;;13.79;100.00;96458.22;4936322;28;20215;-61
2023/09/18 03:53:09;;;;;;;9.03;8.27;;;;;;;13.81;100.00;96450.03;4927388;28;20207;-59
2023/09/18 03:55:37;;;;;;;9.53;8.57;;;;;;;13.77;100.00;96443.53;4831367;28;20278;-59
2023/09/18 03:58:07;;;;;;;8.73;8.03;;;;;;;13.76;100.00;96450.69;4937381;28;20211;-58
2023/09/18 04:00:34;;;;;;;8.20;7.60;;;;;;;13.79;100.00;96452.09;4878031;28;20220;-60
2023/09/18 04:03:02;;;;;;;8.40;7.80;;;;;;;13.75;100.00;96452.56;4935823;28;20682;-60
2023/09/18 04:05:30;;;;;;;7.93;7.33;;;;;;;13.72;100.00;96442.34;4931410;28;20223;-59
2023/09/18 04:07:57;;;;;;;8.07;7.47;;;;;;;13.68;100.00;96443.00;4934513;28;20630;-59
2023/09/18 04:10:26;;;;;;;9.00;8.30;;;;;;;13.70;100.00;96443.59;4885335;28;20294;-60
2023/09/18 04:12:54;;;;;;;8.47;7.87;;;;;;;13.78;100.00;96439.81;4934844;28;20231;-60
2023/09/18 04:15:23;;;;;;;8.73;8.13;;;;;;;13.74;100.00;96437.63;4933161;28;20258;-59
2023/09/18 04:17:51;;;;;;;8.47;7.87;;;;;;;13.72;100.00;96429.03;4938579;28;20242;-59
2023/09/18 04:20:19;;;;;;;10.13;9.10;;;;;;;13.71;100.00;96419.44;4934448;28;20302;-60
2023/09/18 04:22:49;;;;;;;8.40;7.73;;;;;;;13.71;100.00;96424.75;4937983;28;20221;-59
2023/09/18 04:25:18;;;;;;;8.90;8.30;;;;;;;13.74;100.00;96426.97;4827746;28;20265;-58
2023/09/18 04:27:49;;;;;;;9.30;8.70;;;;;;;13.74;100.00;96426.13;4938153;28;20694;-59
2023/09/18 04:30:19;;;;;;;9.03;8.43;;;;;;;13.77;100.00;96427.56;4934285;28;20238;-59
2023/09/18 04:32:48;;;;;;;20.23;16.63;;;;;;;13.83;100.00;96422.16;4939892;28;20658;-57
2023/09/18 04:35:16;;;;;;;13.10;11.17;;;;;;;13.87;100.00;96426.00;4939125;28;20227;-60
2023/09/18 04:37:44;;;;;;;8.67;8.07;;;;;;;13.82;100.00;96420.50;4941174;28;20214;-61
2023/09/18 04:40:12;;;;;;;8.80;8.10;;;;;;;13.84;100.00;96421.13;4887656;28;20306;-60
2023/09/18 04:42:40;;;;;;;8.93;8.23;;;;;;;13.81;100.00;96408.22;4942614;28;20203;-60
2023/09/18 04:45:09;;;;;;;8.20;7.60;;;;;;;13.77;100.00;96401.72;4937239;28;20850;-60
2023/09/18 04:47:36;;;;;;;8.73;8.03;;;;;;;13.76;100.00;96394.78;4937326;28;20246;-61
2023/09/18 04:50:08;;;;;;;8.47;7.87;;;;;;;13.74;100.00;96408.34;4935935;28;20351;-60
2023/09/18 04:52:40;;;;;;;8.87;8.03;;;;;;;13.77;100.00;96412.38;4939323;28;20675;-61
2023/09/18 04:55:08;;;;;;;8.87;8.17;;;;;;;13.80;100.00;96414.59;4938489;28;20239;-58
2023/09/18 04:57:36;;;;;;;9.03;8.17;;;;;;;13.72;100.00;96415.72;4941269;28;20247;-61
2023/09/18 05:00:07;;;;;;;9.27;8.57;;;;;;;13.75;100.00;96411.78;4761878;28;21127;-58
2023/09/18 05:02:44;;;;;;;8.43;7.83;;;;;;;13.84;100.00;96412.31;4937587;28;20255;-61
2023/09/18 05:05:14;;;;;;;7.77;7.27;;;;;;;13.97;100.00;96411.34;4937377;28;20227;-59
2023/09/18 05:07:42;;;;;;;9.07;7.43;;;;;;;14.00;100.00;96408.22;4941602;28;20207;-59
2023/09/18 05:10:10;;;;;;;8.37;7.77;;;;;;;14.03;100.00;96405.94;4881505;28;21836;-58
2023/09/18 05:12:40;;;;;;;8.57;7.97;;;;;;;14.09;100.00;96398.88;4939509;28;20199;-59
2023/09/18 05:15:09;;;;;;;9.07;8.40;;;;;;;14.03;100.00;96389.13;4934823;28;20317;-59
2023/09/18 05:17:42;;;;;;;8.77;8.13;;;;;;;14.12;100.00;96393.09;4941262;28;20207;-60
2023/09/18 05:20:13;;;;;;;8.10;7.50;;;;;;;14.15;100.00;96383.84;4935678;28;20203;-61
2023/09/18 05:22:42;;;;;;;7.80;7.20;;;;;;;14.23;100.00;96380.06;4941289;28;20586;-58
2023/09/18 05:25:10;;;;;;;8.07;7.47;;;;;;;14.33;100.00;96378.44;4883300;28;20243;-60
2023/09/18 05:27:43;;;;;;;9.03;8.40;;;;;;;14.38;100.00;96374.28;4940824;28;20230;-57
2023/09/18 05:30:14;;;;;;;7.73;7.20;;;;;;;14.44;100.00;96384.84;4836168;28;20805;-57
2023/09/18 05:32:43;;;;;;;8.00;7.50;;;;;;;14.55;100.00;96388.59;4940524;28;20298;-61
2023/09/18 05:35:12;;;;;;;8.03;7.50;;;;;;;14.64;100.00;96393.56;4930284;28;20239;-61
2023/09/18 05:37:43;;;;;;;7.63;7.13;;;;;;;14.72;100.00;96402.09;4940633;28;20215;-61
2023/09/18 05:40:12;;;;;;;8.10;7.50;;;;;;;14.76;100.00;96402.44;4888239;28;22320;-60
2023/09/18 05:42:42;;;;;;;7.30;6.73;;;;;;;14.76;100.00;96400.59;4939971;28;20254;-63
2023/09/18 05:45:11;;;;;;;7.70;7.20;;;;;;;14.87;100.00;96403.50;4886009;28;21029;-61
2023/09/18 05:47:39;;;;;;;8.10;7.50;;;;;;;14.93;100.00;96391.91;4877140;28;20875;-60
2023/09/18 05:50:09;;;;;;;8.13;7.43;;;;;;;15.02;100.00;96385.19;4937323;28;20857;-60
2023/09/18 05:52:36;;;;;;;7.37;6.80;;;;;;;15.11;100.00;96366.97;4937038;28;20894;-61
2023/09/18 05:55:07;;;;;;;7.20;6.80;;;;;;;15.07;100.00;96346.34;4939637;28;20259;-60
2023/09/18 05:57:35;;;;;;;8.27;7.47;;;;;;;14.99;100.00;96344.81;4935948;28;20433;-61
2023/09/18 06:00:02;;;;;;;8.50;7.80;;;;;;;14.94;100.00;96340.19;4940221;28;20223;-60
2023/09/18 06:02:30;;;;;;;7.33;6.73;;;;;;;14.81;100.00;96343.09;4831649;28;21535;-59
2023/09/18 06:04:59;;;;;;;7.50;6.90;;;;;;;14.86;100.00;96348.53;4939904;28;20281;-58
2023/09/18 06:07:28;;;;;;;7.00;6.50;;;;;;;14.79;100.00;96366.50;4936676;28;20234;-61
2023/09/18 06:09:55;;;;;;;7.23;6.73;;;;;;;14.85;100.00;96373.56;4940635;28;20270;-59
2023/09/18 06:12:25;;;;;;;7.30;6.70;;;;;;;14.88;100.00;96373.09;4898006;28;20214;-60
2023/09/18 06:14:53;;;;;;;7.73;7.10;;;;;;;14.93;100.00;96369.75;4939716;28;20213;-59
2023/09/18 06:17:21;;;;;;;6.97;6.47;;;;;;;15.05;100.00;96368.72;4892442;28;21277;-58
2023/09/18 06:19:49;;;;;;;7.03;6.63;;;;;;;15.15;100.00;96375.31;4933635;28;20213;-61
2023/09/18 06:22:17;;;;;;;8.30;7.73;;;;;;;15.36;100.00;96359.75;4935631;28;20922;-61
2023/09/18 06:24:45;;;;;;;8.57;7.97;;;;;;;15.51;100.00;96357.41;4939442;28;20266;-61
2023/09/18 06:27:13;;;;;;;8.07;7.47;;;;;;;15.55;100.00;96361.22;4936125;28;20218;-60
2023/09/18 06:29:42;;;;;;;8.23;7.53;;;;;;;15.86;100.00;96356.47;4937484;28;20576;-62
2023/09/18 06:32:10;;;;;;;8.90;8.20;;;;;;;16.15;100.00;96361.84;4933504;28;20293;-61
2023/09/18 06:34:38;;;;;;;7.77;7.17;;;;;;;16.40;100.00;96357.19;4937044;28;20215;-60
2023/09/18 06:37:12;;;;;;;8.63;7.50;;;;;;;16.63;100.00;96353.56;4888281;28;20294;-58
2023/09/18 06:39:40;;;;;;;7.40;6.90;;;;;;;16.84;100.00;96337.81;4892720;28;20293;-61
2023/09/18 06:42:09;;;;;;;7.60;7.13;;;;;;;16.84;100.00;96327.94;4934816;28;20242;-59
2023/09/18 06:44:37;;;;;;;6.67;6.20;;;;;;;17.05;100.00;96342.44;4935924;28;20199;-60
2023/09/18 06:47:06;;;;;;;7.90;7.00;;;;;;;17.33;100.00;96358.59;4911808;28;20223;-59
2023/09/18 06:49:34;;;;;;;6.97;6.47;;;;;;;17.46;100.00;96346.72;4912169;28;20196;-60
2023/09/18 06:52:02;;;;;;;7.07;6.57;;;;;;;17.41;100.00;96352.81;4937414;28;20207;-61
2023/09/18 06:54:33;;;;;;;6.83;6.43;;;;;;;17.36;100.00;96358.09;4934876;28;20226;-60
2023/09/18 06:57:01;;;;;;;7.30;6.70;;;;;;;17.30;100.00;96359.91;4915379;28;20234;-59
2023/09/18 06:59:29;;;;;;;6.83;6.30;;;;;;;17.13;100.00;96375.19;4900015;28;20230;-60
2023/09/18 07:01:58;;;;;;;7.50;6.80;;;;;;;16.96;100.00;96409.97;4937513;28;20222;-61
2023/09/18 07:04:27;;;;;;;6.73;6.13;;;;;;;16.90;100.00;96414.44;4936475;28;20650;-57
2023/09/18 07:06:56;;;;;;;7.50;6.80;;;;;;;16.80;100.00;96401.69;4904286;28;20803;-58
2023/09/18 07:09:25;;;;;;;6.83;6.27;;;;;;;16.97;100.00;96404.38;4840273;28;20702;-60
2023/09/18 07:11:53;;;;;;;7.70;6.37;;;;;;;17.15;100.00;96411.38;4937060;28;20211;-60
2023/09/18 07:14:21;;;;;;;6.63;6.20;;;;;;;17.18;100.00;96423.44;4930144;28;20353;-60
2023/09/18 07:16:49;;;;;;;6.80;6.20;;;;;;;17.28;100.00;96428.13;4933363;28;20825;-58
2023/09/18 07:19:17;;;;;;;7.63;6.67;;;;;;;17.25;100.00;96424.09;4886455;28;20336;-62
2023/09/18 07:21:46;;;;;;;9.17;8.27;;;;;;;17.35;100.00;96415.38;4933995;28;20214;-60
2023/09/18 07:24:16;;;;;;;7.70;7.00;;;;;;;17.33;100.00;96412.97;4930920;28;20693;-61
2023/09/18 07:26:46;;;;;;;7.60;6.90;;;;;;;17.71;100.00;96407.03;4933035;28;20222;-60
2023/09/18 07:29:14;;;;;;;7.87;7.13;;;;;;;17.86;100.00;96383.09;4931457;28;20219;-60
2023/09/18 07:31:43;;;;;;;10.67;6.63;;;;;;;18.10;100.00;96366.78;4938591;28;20212;-59
2023/09/18 07:34:11;;;;;;;9.13;6.73;;;;;;;18.34;100.00;96367.28;4931708;28;20207;-60
2023/09/18 07:36:41;;;;;;;6.60;6.20;;;;;;;18.49;100.00;96377.34;4938664;28;20231;-58
2023/09/18 07:39:11;;;;;;;6.87;6.37;;;;;;;18.77;100.00;96391.53;4817567;28;20371;-60
2023/09/18 07:41:40;;;;;;;6.57;6.07;;;;;;;18.98;100.00;96404.31;4935068;28;20229;-59
2023/09/18 07:44:08;;;;;;;6.00;5.60;;;;;;;19.01;100.00;96401.13;4933220;28;20211;-60
2023/09/18 07:46:36;;;;;;;6.17;5.77;;;;;;;19.31;100.00;96402.38;4935356;28;20680;-59
2023/09/18 07:49:03;;;;;;;6.57;5.97;;;;;;;19.55;100.00;96400.09;4884638;28;20214;-62
2023/09/18 07:51:31;;;;;;;6.20;5.70;;;;;;;19.59;100.00;96387.75;4930986;28;20289;-60
2023/09/18 07:53:59;;;;;;;6.43;6.03;;;;;;;19.71;100.00;96390.25;4930738;28;20238;-61
2023/09/18 07:56:31;;;;;;;6.03;5.53;;;;;;;19.88;100.00;96398.06;4938443;28;20230;-60
2023/09/18 07:58:59;;;;;;;6.53;6.03;;;;;;;20.04;100.00;96401.66;4935037;28;20402;-59
2023/09/18 08:01:26;;;;;;;8.40;7.70;;;;;;;20.19;100.00;96400.88;4936983;28;20226;-59
2023/09/18 08:03:59;;;;;;;7.20;6.60;;;;;;;20.28;100.00;96376.19;4935527;28;20211;-59
2023/09/18 08:06:28;;;;;;;6.93;5.30;;;;;;;20.30;100.00;96379.41;4940497;28;20789;-57
2023/09/18 08:08:55;;;;;;;5.50;5.20;;;;;;;20.46;100.00;96386.44;4937948;28;20206;-60
2023/09/18 08:11:23;;;;;;;5.87;5.47;;;;;;;20.55;100.00;96392.09;4938730;28;20207;-60
2023/09/18 08:13:52;;;;;;;7.10;5.47;;;;;;;20.67;100.00;96394.53;4819983;28;20211;-60
2023/09/18 08:16:20;;;;;;;6.20;5.60;;;;;;;20.80;100.00;96403.97;4943039;28;20254;-59
2023/09/18 08:18:48;;;;;;;5.43;5.13;;;;;;;20.90;100.00;96411.22;4938123;28;20269;-60
2023/09/18 08:21:17;;;;;;;5.30;5.00;;;;;;;21.00;100.00;96413.91;4941471;28;20274;-60
2023/09/18 08:23:44;;;;;;;6.03;5.63;;;;;;;21.02;100.00;96417.16;4886775;28;20278;-60
2023/09/18 08:26:12;;;;;;;5.47;5.10;;;;;;;21.02;100.00;96419.03;4940358;28;20259;-60
2023/09/18 08:28:43;;;;;;;5.57;5.10;;;;;;;21.14;100.00;96416.88;4936985;28;20207;-59
2023/09/18 08:31:12;;;;;;;5.30;4.90;;;;;;;21.19;100.00;96421.44;4940961;28;20711;-59
2023/09/18 08:33:40;;;;;;;5.07;4.77;;;;;;;21.20;100.00;96410.41;4937372;28;20239;-60
2023/09/18 08:36:08;;;;;;;4.93;4.63;;;;;;;21.16;100.00;96406.63;4939568;28;20322;-60
2023/09/18 08:38:35;;;;;;;4.97;4.67;;;;;;;21.35;100.00;96404.19;4934234;28;20337;-58
2023/09/18 08:41:04;;;;;;;4.97;4.57;;;;;;;21.56;100.00;96390.66;4939723;28;20206;-58
2023/09/18 08:43:32;;;;;;;5.43;5.13;;;;;;;21.68;100.00;96385.00;4810243;28;20841;-58
2023/09/18 08:46:02;;;;;;;4.77;4.47;;;;;;;21.66;100.00;96392.56;4941386;28;20255;-58
2023/09/18 08:48:34;;;;;;;5.27;4.90;;;;;;;21.64;100.00;96394.72;4935494;28;20368;-59
2023/09/18 08:51:04;;;;;;;5.53;5.13;;;;;;;21.94;100.00;96385.69;4942721;28;20261;-59
2023/09/18 08:53:33;;;;;;;5.37;4.87;;;;;;;21.97;100.00;96381.63;4936195;28;20239;-59
2023/09/18 08:56:01;;;;;;;4.97;4.70;;;;;;;22.05;100.00;96385.63;4940945;28;20255;-61
2023/09/18 08:58:33;;;;;;;6.33;5.73;;;;;;;21.85;100.00;96383.84;4885936;28;21138;-59
2023/09/18 09:01:03;;;;;;;5.57;5.07;;;;;;;21.93;100.00;96385.94;4942356;28;20207;-61
2023/09/18 09:03:34;;;;;;;5.20;4.70;;;;;;;22.11;100.00;96366.44;4939028;28;20229;-59
2023/09/18 09:06:02;;;;;;;6.47;6.07;;;;;;;22.00;100.00;96391.88;4941865;28;20302;-61
2023/09/18 09:08:30;;;;;;;5.83;5.43;;;;;;;22.23;100.00;96376.91;4934920;28;20227;-61
2023/09/18 09:10:58;;;;;;;5.53;5.03;;;;;;;22.54;100.00;96365.94;4942608;28;20688;-61
2023/09/18 09:13:26;;;;;;;5.47;5.03;;;;;;;22.39;100.00;96357.91;4937672;28;20306;-61
2023/09/18 09:16:13;;;;;;;6.17;4.80;;;;;;;22.55;100.00;96358.63;4937655;28;20227;-61
2023/09/18 09:18:50;;;;;;;5.80;5.27;;;;;;;22.63;100.00;96366.13;4810636;28;22041;-59
2023/09/18 09:21:19;;;;;;;5.47;5.03;;;;;;;23.03;100.00;96376.06;4942072;28;20199;-60
2023/09/18 09:23:51;;;;;;;6.27;5.20;;;;;;;22.99;100.00;96373.13;4912231;28;20215;-62
2023/09/18 09:26:20;;;;;;;5.27;4.77;;;;;;;22.76;100.00;96380.88;4938808;28;20352;-59
2023/09/18 09:28:48;;;;;;;4.90;4.60;;;;;;;22.72;100.00;96374.44;4883954;28;20991;-60
2023/09/18 09:31:25;;;;;;;9.60;8.80;;;;;;;22.78;100.00;96377.91;4940390;28;20234;-62
2023/09/18 09:33:55;;;;;;;5.30;4.80;;;;;;;23.01;100.00;96384.47;4930168;28;20289;-61
2023/09/18 09:36:24;;;;;;;4.83;4.50;;;;;;;23.09;100.00;96378.44;4938432;28;20626;-62
2023/09/18 09:38:55;;;;;;;4.50;4.10;;;;;;;23.24;100.00;96371.25;4890062;28;20223;-62
2023/09/18 09:41:23;;;;;;;5.30;4.80;;;;;;;23.58;100.00;96364.97;4937999;28;20976;-60
2023/09/18 09:43:51;;;;;;;5.53;4.80;;;;;;;23.87;100.00;96353.28;4936487;28;20199;-61
2023/09/18 09:46:21;;;;;;;6.20;5.40;;;;;;;23.99;100.00;96344.72;4940381;28;20223;-61
2023/09/18 09:49:01;;;;;;;4.77;4.13;;;;;;;24.14;100.00;96341.84;4936552;28;20238;-61
2023/09/18 09:51:29;;;;;;;5.50;4.40;;;;;;;24.05;100.00;96343.59;4936289;28;20368;-61
2023/09/18 09:53:58;;;;;;;6.03;4.60;;;;;;;24.20;100.00;96339.88;4805289;28;20219;-61
2023/09/18 09:56:41;;;;;;;5.83;5.03;;;;;;;24.09;100.00;96346.53;4938444;28;20219;-61
2023/09/18 09:59:11;;;;;;;5.07;4.67;;;;;;;24.10;100.00;96345.44;4937973;28;20223;-62
2023/09/18 10:01:40;;;;;;;8.00;4.90;;;;;;;24.30;100.00;96348.94;4938415;28;20211;-61
2023/09/18 10:04:13;;;;;;;7.10;4.43;;;;;;;23.98;100.00;96343.91;4885497;28;20737;-59
2023/09/18 10:06:43;;;;;;;5.70;4.00;;;;;;;23.93;100.00;96344.00;4937584;28;20227;-61
2023/09/18 10:09:15;;;;;;;6.70;4.40;;;;;;;24.33;100.00;96341.03;4935495;28;20222;-63
2023/09/18 10:11:46;;;;;;;5.50;4.33;;;;;;;24.58;100.00;96336.31;4937147;28;20206;-62
2023/09/18 10:14:17;;;;;;;4.97;4.53;;;;;;;24.73;100.00;96324.41;4869011;28;20222;-59
2023/09/18 10:16:55;;;;;;;8.57;4.70;;;;;;;24.85;100.00;96337.53;4901270;28;20234;-61
2023/09/18 10:19:33;;;;;;;4.67;4.17;;;;;;;25.00;100.00;96339.16;4937862;28;20233;-61
2023/09/18 10:22:10;;;;;;;4.50;4.10;;;;;;;25.13;100.00;96326.75;4937183;28;20211;-62
2023/09/18 10:24:41;;;;;;;4.40;4.00;;;;;;;24.94;100.00;96324.09;4846456;28;21154;-60
2023/09/18 10:27:11;;;;;;;5.97;4.27;;;;;;;24.83;100.00;96323.47;4933663;28;20671;-63
2023/09/18 10:29:39;;;;;;;9.50;4.63;;;;;;;24.99;100.00;96332.94;4931607;28;20233;-61
2023/09/18 10:32:08;;;;;;;5.40;4.50;;;;;;;25.03;100.00;96333.16;4942228;28;20215;-62
2023/09/18 10:34:37;;;;;;;6.30;3.70;;;;;;;25.14;98.25;96323.72;4905224;28;20210;-56
2023/09/18 10:37:06;;;;;;;7.77;4.87;;;;;;;25.13;99.23;96341.06;4934318;28;20356;-62
2023/09/18 10:39:36;;;;;;;8.17;4.30;;;;;;;24.97;96.99;96345.97;4934368;28;20238;-60
2023/09/18 10:42:06;;;;;;;4.20;3.80;;;;;;;24.96;100.00;96347.06;4939756;28;20207;-60
2023/09/18 10:44:35;;;;;;;10.63;4.47;;;;;;;24.76;98.15;96334.69;4900888;28;21064;-59
2023/09/18 10:47:05;;;;;;;7.13;4.57;;;;;;;24.99;98.75;96351.88;4928317;28;20287;-59
2023/09/18 10:49:34;;;;;;;4.30;3.87;;;;;;;24.88;100.00;96342.34;4934226;28;20211;-60
2023/09/18 10:52:04;;;;;;;6.27;4.10;;;;;;;24.80;100.00;96334.91;4938983;28;20270;-60
2023/09/18 10:54:37;;;;;;;8.80;4.63;;;;;;;24.98;100.00;96339.44;4847607;28;20577;-60
2023/09/18 10:57:05;;;;;;;7.13;4.13;;;;;;;25.14;100.00;96341.91;4918931;28;20620;-61
2023/09/18 10:59:33;;;;;;;8.03;4.37;;;;;;;25.43;100.00;96343.53;4934325;28;20948;-61
2023/09/18 11:02:06;;;;;;;7.23;3.97;;;;;;;25.58;99.27;96342.47;4939329;28;20211;-60
2023/09/18 11:04:36;;;;;;;6.17;4.50;;;;;;;25.50;98.46;96343.97;4901773;28;20931;-59
2023/09/18 11:07:05;;;;;;;6.20;4.93;;;;;;;25.53;98.43;96331.69;4929320;28;20231;-60
2023/09/18 11:09:42;;;;;;;7.33;4.30;;;;;;;25.66;96.00;96328.19;4933765;28;21297;-60
2023/09/18 11:12:11;;;;;;;7.53;4.27;;;;;;;26.05;96.11;96339.56;4937754;28;20297;-59
2023/09/18 11:14:44;;;;;;;6.23;3.77;;;;;;;26.32;97.80;96328.94;4894620;28;21035;-56
2023/09/18 11:17:29;;;;;;;7.53;4.00;;;;;;;26.35;97.29;96340.00;4936652;28;20671;-58
2023/09/18 11:20:05;;;;;;;6.10;4.10;;;;;;;26.56;97.77;96345.75;4935919;28;20241;-59
2023/09/18 11:22:34;;;;;;;7.40;4.00;;;;;;;26.31;91.91;96358.03;4936397;28;20208;-61
2023/09/18 11:25:37;;;;;;;4.63;3.70;;;;;;;26.03;93.53;96352.63;4935764;28;20270;-61
2023/09/18 11:28:07;;;;;;;8.13;4.13;;;;;;;26.05;98.73;96355.84;4936818;28;20704;-61
2023/09/18 11:30:36;;;;;;;5.07;3.73;;;;;;;26.12;100.00;96358.16;4812502;28;20219;-60
2023/09/18 11:33:05;;;;;;;8.93;3.70;;;;;;;25.98;100.00;96356.28;4936728;28;20275;-62
2023/09/18 11:35:34;;;;;;;11.87;4.73;;;;;;;25.30;100.00;96342.41;4888343;28;20847;-59